CheckWX is a tool to help pilots better visualize weather data.  It is not intended as a substitute for an official pre-flight weather briefing.

15:27:42 UTC

KELD METAR
South Arkansas Regional at Goodwin Field Airport
El Dorado, Arkansas, USA
Current

35 mins ago

KELD 171453Z AUTO 02004KT 10SM CLR 13/11 A3012 RMK AO2 SLP200 T01330111 51007
Observed
Oct-17 @ 14:53 UTC
Wind
  • 020° at 4 KTS
Visibility
10 SM
Flight Rules
VFR
Cloud Levels
  • Clear skies
Temperature
13°C / 55°F
Dewpoint
11°C / 52°F
Humidity
88%
Altimeter
30.12" Hg
Pressure
1020.02 hPa
Previous

2 hours ago

KELD 171353Z AUTO 00000KT 10SM CLR 09/09 A3012 RMK AO2 SLP200 T00940094
Observed
Oct-17 @ 13:53 UTC
Visibility
10 SM
Flight Rules
VFR
Cloud Levels
  • Clear skies
Temperature
C / 48°F
Dewpoint
C / 48°F
Humidity
100%
Altimeter
30.12" Hg
Pressure
1020.02 hPa
Previous

3 hours ago

KELD 171253Z AUTO 00000KT 10SM CLR 07/07 A3011 RMK AO2 SLP195 T00670067
Observed
Oct-17 @ 12:53 UTC
Visibility
10 SM
Flight Rules
VFR
Cloud Levels
  • Clear skies
Temperature
C / 45°F
Dewpoint
C / 45°F
Humidity
100%
Altimeter
30.11" Hg
Pressure
1019.62 hPa